sensor_id;sensor_type;location;lat;lon;timestamp;pressure;altitude;pressure_sealevel;temperature;humidity
76374;BME280;65197;50.164;8.012;2023-02-28T00:01:06;96431.78;;;-3.86;83.15
76374;BME280;65197;50.164;8.012;2023-02-28T00:03:32;96434.19;;;-3.90;83.79
76374;BME280;65197;50.164;8.012;2023-02-28T00:06:01;96409.00;;;-4.02;84.46
76374;BME280;65197;50.164;8.012;2023-02-28T00:08:27;96418.22;;;-3.98;84.51
76374;BME280;65197;50.164;8.012;2023-02-28T00:10:53;96422.53;;;-3.91;84.71
76374;BME280;65197;50.164;8.012;2023-02-28T00:13:18;96413.22;;;-4.00;85.40
76374;BME280;65197;50.164;8.012;2023-02-28T00:15:44;96424.09;;;-3.96;85.70
76374;BME280;65197;50.164;8.012;2023-02-28T00:18:10;96431.50;;;-3.98;86.44
76374;BME280;65197;50.164;8.012;2023-02-28T00:20:36;96425.66;;;-4.01;87.27
76374;BME280;65197;50.164;8.012;2023-02-28T00:23:02;96411.25;;;-4.13;87.60
76374;BME280;65197;50.164;8.012;2023-02-28T00:25:27;96430.63;;;-4.01;88.04
76374;BME280;65197;50.164;8.012;2023-02-28T00:27:53;96430.75;;;-3.95;88.42
76374;BME280;65197;50.164;8.012;2023-02-28T00:30:20;96430.63;;;-4.01;88.74
76374;BME280;65197;50.164;8.012;2023-02-28T00:32:46;96427.94;;;-4.11;89.13
76374;BME280;65197;50.164;8.012;2023-02-28T00:35:12;96417.22;;;-4.06;89.02
76374;BME280;65197;50.164;8.012;2023-02-28T00:37:38;96431.28;;;-4.08;89.50
76374;BME280;65197;50.164;8.012;2023-02-28T00:40:04;96406.91;;;-4.22;89.66
76374;BME280;65197;50.164;8.012;2023-02-28T00:42:31;96406.84;;;-4.25;90.44
76374;BME280;65197;50.164;8.012;2023-02-28T00:44:57;96427.81;;;-4.15;91.13
76374;BME280;65197;50.164;8.012;2023-02-28T00:47:22;96429.53;;;-4.13;91.23
76374;BME280;65197;50.164;8.012;2023-02-28T00:49:48;96423.72;;;-4.12;91.11
76374;BME280;65197;50.164;8.012;2023-02-28T00:52:13;96402.44;;;-4.35;92.55
76374;BME280;65197;50.164;8.012;2023-02-28T00:54:39;96429.41;;;-4.17;93.20
76374;BME280;65197;50.164;8.012;2023-02-28T00:57:04;96429.41;;;-4.17;92.68
76374;BME280;65197;50.164;8.012;2023-02-28T00:59:29;96409.13;;;-4.34;93.24
76374;BME280;65197;50.164;8.012;2023-02-28T01:01:55;96424.19;;;-4.28;93.49
76374;BME280;65197;50.164;8.012;2023-02-28T01:04:20;96430.03;;;-4.26;93.67
76374;BME280;65197;50.164;8.012;2023-02-28T01:06:46;96399.91;;;-4.38;93.85
76374;BME280;65197;50.164;8.012;2023-02-28T01:09:11;96434.19;;;-4.26;93.71
76374;BME280;65197;50.164;8.012;2023-02-28T01:11:37;96421.63;;;-4.31;93.40
76374;BME280;65197;50.164;8.012;2023-02-28T01:14:03;96419.09;;;-4.34;94.60
76374;BME280;65197;50.164;8.012;2023-02-28T01:16:29;96430.66;;;-4.35;94.92
76374;BME280;65197;50.164;8.012;2023-02-28T01:18:55;96405.41;;;-4.50;94.56
76374;BME280;65197;50.164;8.012;2023-02-28T01:21:21;96427.38;;;-4.33;94.94
76374;BME280;65197;50.164;8.012;2023-02-28T01:23:47;96427.38;;;-4.33;95.03
76374;BME280;65197;50.164;8.012;2023-02-28T01:26:19;96419.88;;;-4.35;94.96
76374;BME280;65197;50.164;8.012;2023-02-28T01:28:45;96396.25;;;-4.52;95.00
76374;BME280;65197;50.164;8.012;2023-02-28T01:31:11;96392.03;;;-4.53;95.30
76374;BME280;65197;50.164;8.012;2023-02-28T01:33:37;96416.22;;;-4.49;96.16
76374;BME280;65197;50.164;8.012;2023-02-28T01:36:10;96429.44;;;-4.52;96.64
76374;BME280;65197;50.164;8.012;2023-02-28T01:38:36;96413.56;;;-4.55;96.38
76374;BME280;65197;50.164;8.012;2023-02-28T01:41:02;96426.06;;;-4.54;97.24
76374;BME280;65197;50.164;8.012;2023-02-28T01:43:50;96397.69;;;-4.61;97.16
76374;BME280;65197;50.164;8.012;2023-02-28T01:46:17;96390.88;;;-4.68;97.17
76374;BME280;65197;50.164;8.012;2023-02-28T01:48:52;96425.16;;;-4.57;97.62
76374;BME280;65197;50.164;8.012;2023-02-28T01:51:42;96422.59;;;-4.61;97.92
76374;BME280;65197;50.164;8.012;2023-02-28T01:54:19;96403.94;;;-4.76;98.35
76374;BME280;65197;50.164;8.012;2023-02-28T01:56:50;96417.47;;;-4.67;98.56
76374;BME280;65197;50.164;8.012;2023-02-28T01:59:29;96403.91;;;-4.78;98.79
76374;BME280;65197;50.164;8.012;2023-02-28T02:01:56;96411.47;;;-4.73;99.27
76374;BME280;65197;50.164;8.012;2023-02-28T02:04:23;96408.88;;;-4.78;100.00
76374;BME280;65197;50.164;8.012;2023-02-28T02:06:50;96372.72;;;-4.98;100.00
76374;BME280;65197;50.164;8.012;2023-02-28T02:09:16;96400.47;;;-4.83;100.00
76374;BME280;65197;50.164;8.012;2023-02-28T02:11:43;96402.91;;;-4.84;100.00
76374;BME280;65197;50.164;8.012;2023-02-28T02:14:20;96407.00;;;-4.87;100.00
76374;BME280;65197;50.164;8.012;2023-02-28T02:25:19;96380.09;;;-5.01;100.00
76374;BME280;65197;50.164;8.012;2023-02-28T02:28:20;96397.50;;;-5.01;100.00
76374;BME280;65197;50.164;8.012;2023-02-28T02:34:02;96391.94;;;-4.91;100.00
76374;BME280;65197;50.164;8.012;2023-02-28T02:36:37;96390.97;;;-4.98;100.00
76374;BME280;65197;50.164;8.012;2023-02-28T02:39:17;96393.56;;;-4.93;100.00
76374;BME280;65197;50.164;8.012;2023-02-28T02:41:53;96340.31;;;-5.33;100.00
76374;BME280;65197;50.164;8.012;2023-02-28T02:44:24;96388.06;;;-5.13;100.00
76374;BME280;65197;50.164;8.012;2023-02-28T02:46:55;96383.06;;;-5.15;100.00
76374;BME280;65197;50.164;8.012;2023-02-28T02:49:28;96389.72;;;-5.14;100.00
76374;BME280;65197;50.164;8.012;2023-02-28T02:51:57;96383.72;;;-5.22;100.00
76374;BME280;65197;50.164;8.012;2023-02-28T02:54:29;96397.72;;;-5.24;100.00
76374;BME280;65197;50.164;8.012;2023-02-28T02:57:08;96399.34;;;-5.26;100.00
76374;BME280;65197;50.164;8.012;2023-02-28T02:59:39;96392.53;;;-5.33;100.00
76374;BME280;65197;50.164;8.012;2023-02-28T03:02:09;96395.81;;;-5.34;100.00
76374;BME280;65197;50.164;8.012;2023-02-28T03:04:43;96393.94;;;-5.41;100.00
76374;BME280;65197;50.164;8.012;2023-02-28T03:07:11;96396.69;;;-5.32;100.00
76374;BME280;65197;50.164;8.012;2023-02-28T03:09:36;96387.72;;;-5.27;100.00
76374;BME280;65197;50.164;8.012;2023-02-28T03:12:02;96395.91;;;-5.31;100.00
76374;BME280;65197;50.164;8.012;2023-02-28T03:14:55;96359.00;;;-5.47;100.00
76374;BME280;65197;50.164;8.012;2023-02-28T03:25:42;96370.31;;;-5.58;100.00
76374;BME280;65197;50.164;8.012;2023-02-28T03:28:21;96400.28;;;-5.52;100.00
76374;BME280;65197;50.164;8.012;2023-02-28T03:33:25;96386.00;;;-5.59;100.00
76374;BME280;65197;50.164;8.012;2023-02-28T03:35:56;96402.66;;;-5.55;100.00
76374;BME280;65197;50.164;8.012;2023-02-28T03:38:37;96381.00;;;-5.61;100.00
76374;BME280;65197;50.164;8.012;2023-02-28T03:43:38;96396.78;;;-5.59;100.00
76374;BME280;65197;50.164;8.012;2023-02-28T03:46:10;96396.72;;;-5.60;100.00
76374;BME280;65197;50.164;8.012;2023-02-28T03:48:44;96378.13;;;-5.75;100.00
76374;BME280;65197;50.164;8.012;2023-02-28T03:51:16;96404.31;;;-5.56;100.00
76374;BME280;65197;50.164;8.012;2023-02-28T03:53:47;96396.81;;;-5.57;100.00
76374;BME280;65197;50.164;8.012;2023-02-28T03:56:23;96403.38;;;-5.59;100.00
76374;BME280;65197;50.164;8.012;2023-02-28T04:01:30;96395.75;;;-5.66;100.00
76374;BME280;65197;50.164;8.012;2023-02-28T04:03:57;96403.13;;;-5.69;100.00
76374;BME280;65197;50.164;8.012;2023-02-28T04:06:24;96390.44;;;-5.78;100.00
76374;BME280;65197;50.164;8.012;2023-02-28T04:08:50;96408.19;;;-5.66;100.00
76374;BME280;65197;50.164;8.012;2023-02-28T04:11:27;96404.16;;;-5.62;100.00
76374;BME280;65197;50.164;8.012;2023-02-28T04:13:57;96393.28;;;-5.66;100.00
76374;BME280;65197;50.164;8.012;2023-02-28T04:16:22;96403.47;;;-5.56;100.00
76374;BME280;65197;50.164;8.012;2023-02-28T04:18:48;96400.69;;;-5.67;100.00
76374;BME280;65197;50.164;8.012;2023-02-28T04:21:13;96408.91;;;-5.70;100.00
76374;BME280;65197;50.164;8.012;2023-02-28T04:23:39;96379.53;;;-5.83;100.00
76374;BME280;65197;50.164;8.012;2023-02-28T04:26:04;96407.13;;;-5.74;100.00
76374;BME280;65197;50.164;8.012;2023-02-28T04:28:31;96397.06;;;-5.78;100.00
76374;BME280;65197;50.164;8.012;2023-02-28T04:30:59;96392.97;;;-5.76;100.00
76374;BME280;65197;50.164;8.012;2023-02-28T04:33:25;96370.97;;;-5.94;100.00
76374;BME280;65197;50.164;8.012;2023-02-28T04:36:01;96406.41;;;-5.70;100.00
76374;BME280;65197;50.164;8.012;2023-02-28T04:38:28;96397.81;;;-5.81;100.00
76374;BME280;65197;50.164;8.012;2023-02-28T04:40:57;96395.28;;;-5.82;100.00
76374;BME280;65197;50.164;8.012;2023-02-28T04:43:22;96397.72;;;-5.84;100.00
76374;BME280;65197;50.164;8.012;2023-02-28T04:45:47;96388.50;;;-5.88;100.00
76374;BME280;65197;50.164;8.012;2023-02-28T04:48:13;96392.59;;;-5.90;100.00
76374;BME280;65197;50.164;8.012;2023-02-28T04:50:38;96369.88;;;-6.04;100.00
76374;BME280;65197;50.164;8.012;2023-02-28T04:53:04;96391.88;;;-5.86;100.00
76374;BME280;65197;50.164;8.012;2023-02-28T04:55:29;96399.34;;;-5.86;100.00
76374;BME280;65197;50.164;8.012;2023-02-28T04:57:54;96397.38;;;-5.96;100.00
76374;BME280;65197;50.164;8.012;2023-02-28T05:00:20;96389.84;;;-6.01;100.00
76374;BME280;65197;50.164;8.012;2023-02-28T05:02:45;96399.00;;;-5.98;100.00
76374;BME280;65197;50.164;8.012;2023-02-28T05:05:11;96398.06;;;-6.02;100.00
76374;BME280;65197;50.164;8.012;2023-02-28T05:07:41;96405.38;;;-6.06;100.00
76374;BME280;65197;50.164;8.012;2023-02-28T05:10:07;96391.09;;;-6.13;100.00
76374;BME280;65197;50.164;8.012;2023-02-28T05:12:32;96373.59;;;-6.18;100.00
76374;BME280;65197;50.164;8.012;2023-02-28T05:14:58;96372.28;;;-6.34;100.00
76374;BME280;65197;50.164;8.012;2023-02-28T05:17:23;96399.94;;;-6.22;100.00
76374;BME280;65197;50.164;8.012;2023-02-28T05:19:49;96382.16;;;-6.35;100.00
76374;BME280;65197;50.164;8.012;2023-02-28T05:22:15;96409.22;;;-6.16;100.00
76374;BME280;65197;50.164;8.012;2023-02-28T05:24:43;96404.94;;;-6.20;100.00
76374;BME280;65197;50.164;8.012;2023-02-28T05:27:09;96415.53;;;-6.26;100.00
76374;BME280;65197;50.164;8.012;2023-02-28T05:29:35;96413.69;;;-6.33;100.00
76374;BME280;65197;50.164;8.012;2023-02-28T05:32:08;96372.63;;;-6.50;100.00
76374;BME280;65197;50.164;8.012;2023-02-28T05:34:33;96398.72;;;-6.34;100.00
76374;BME280;65197;50.164;8.012;2023-02-28T05:36:59;96419.50;;;-6.32;100.00
76374;BME280;65197;50.164;8.012;2023-02-28T05:39:24;96411.94;;;-6.35;100.00
76374;BME280;65197;50.164;8.012;2023-02-28T05:41:50;96416.16;;;-6.33;100.00
76374;BME280;65197;50.164;8.012;2023-02-28T05:44:15;96412.78;;;-6.35;100.00
76374;BME280;65197;50.164;8.012;2023-02-28T05:46:41;96397.31;;;-6.53;100.00
76374;BME280;65197;50.164;8.012;2023-02-28T05:49:06;96417.00;;;-6.32;100.00
76374;BME280;65197;50.164;8.012;2023-02-28T05:51:32;96417.16;;;-6.28;100.00
76374;BME280;65197;50.164;8.012;2023-02-28T05:54:00;96412.47;;;-6.19;100.00
76374;BME280;65197;50.164;8.012;2023-02-28T05:56:26;96404.53;;;-6.34;100.00
76374;BME280;65197;50.164;8.012;2023-02-28T05:58:52;96408.72;;;-6.33;100.00
76374;BME280;65197;50.164;8.012;2023-02-28T06:01:22;96394.53;;;-6.37;100.00
76374;BME280;65197;50.164;8.012;2023-02-28T06:03:48;96404.81;;;-6.25;100.00
76374;BME280;65197;50.164;8.012;2023-02-28T06:06:13;96421.84;;;-6.10;100.00
76374;BME280;65197;50.164;8.012;2023-02-28T06:08:38;96415.22;;;-6.09;100.00
76374;BME280;65197;50.164;8.012;2023-02-28T06:11:04;96395.81;;;-6.21;100.00
76374;BME280;65197;50.164;8.012;2023-02-28T06:13:29;96396.94;;;-6.11;100.00
76374;BME280;65197;50.164;8.012;2023-02-28T06:15:55;96383.00;;;-6.08;100.00
76374;BME280;65197;50.164;8.012;2023-02-28T06:18:20;96412.53;;;-5.87;100.00
76374;BME280;65197;50.164;8.012;2023-02-28T06:20:52;96395.88;;;-5.91;100.00
76374;BME280;65197;50.164;8.012;2023-02-28T06:23:19;96427.97;;;-5.69;100.00
76374;BME280;65197;50.164;8.012;2023-02-28T06:25:45;96421.25;;;-5.73;100.00
76374;BME280;65197;50.164;8.012;2023-02-28T06:28:11;96428.22;;;-5.59;100.00
76374;BME280;65197;50.164;8.012;2023-02-28T06:30:37;96440.25;;;-5.45;100.00
76374;BME280;65197;50.164;8.012;2023-02-28T06:33:03;96435.16;;;-5.19;100.00
76374;BME280;65197;50.164;8.012;2023-02-28T06:35:28;96432.44;;;-4.97;97.37
76374;BME280;65197;50.164;8.012;2023-02-28T06:37:54;96384.97;;;-5.04;96.76
76374;BME280;65197;50.164;8.012;2023-02-28T06:40:20;96433.97;;;-4.69;95.13
76374;BME280;65197;50.164;8.012;2023-02-28T06:42:45;96432.63;;;-4.57;94.69
76374;BME280;65197;50.164;8.012;2023-02-28T06:45:11;96422.41;;;-4.33;93.45
76374;BME280;65197;50.164;8.012;2023-02-28T06:47:41;96427.34;;;-4.35;92.68
76374;BME280;65197;50.164;8.012;2023-02-28T06:50:08;96409.91;;;-4.35;91.79
76374;BME280;65197;50.164;8.012;2023-02-28T06:52:34;96427.41;;;-3.97;90.38
76374;BME280;65197;50.164;8.012;2023-02-28T06:55:01;96416.47;;;-4.02;90.37
76374;BME280;65197;50.164;8.012;2023-02-28T06:57:28;96426.00;;;-3.85;89.56
76374;BME280;65197;50.164;8.012;2023-02-28T06:59:56;96395.59;;;-4.07;88.56
76374;BME280;65197;50.164;8.012;2023-02-28T07:02:22;96421.28;;;-3.74;87.76
76374;BME280;65197;50.164;8.012;2023-02-28T07:04:47;96428.13;;;-3.64;87.07
76374;BME280;65197;50.164;8.012;2023-02-28T07:07:13;96450.19;;;-3.41;87.20
76374;BME280;65197;50.164;8.012;2023-02-28T07:09:38;96427.88;;;-2.91;82.89
76374;BME280;65197;50.164;8.012;2023-02-28T07:12:04;96425.63;;;-2.77;82.60
76374;BME280;65197;50.164;8.012;2023-02-28T07:14:29;96426.50;;;-2.77;80.83
76374;BME280;65197;50.164;8.012;2023-02-28T07:16:55;96439.28;;;-2.59;80.22
76374;BME280;65197;50.164;8.012;2023-02-28T07:19:20;96445.31;;;-2.47;79.71
76374;BME280;65197;50.164;8.012;2023-02-28T07:21:46;96437.66;;;-2.03;78.35
76374;BME280;65197;50.164;8.012;2023-02-28T07:24:11;96424.25;;;-2.12;76.80
76374;BME280;65197;50.164;8.012;2023-02-28T07:26:37;96436.44;;;-1.74;76.70
76374;BME280;65197;50.164;8.012;2023-02-28T07:29:02;96421.06;;;-2.00;75.73
76374;BME280;65197;50.164;8.012;2023-02-28T07:31:27;96450.00;;;-1.58;75.12
76374;BME280;65197;50.164;8.012;2023-02-28T07:33:53;96443.19;;;-1.70;74.81
76374;BME280;65197;50.164;8.012;2023-02-28T07:36:19;96439.09;;;-2.21;75.04
76374;BME280;65197;50.164;8.012;2023-02-28T07:38:46;96445.38;;;-1.90;74.35
76374;BME280;65197;50.164;8.012;2023-02-28T07:41:14;96443.88;;;-1.80;73.38
76374;BME280;65197;50.164;8.012;2023-02-28T07:43:39;96454.91;;;-1.66;71.50
76374;BME280;65197;50.164;8.012;2023-02-28T07:46:08;96461.09;;;-1.98;72.66
76374;BME280;65197;50.164;8.012;2023-02-28T07:48:34;96451.66;;;-2.16;73.35
76374;BME280;65197;50.164;8.012;2023-02-28T07:51:00;96432.75;;;-2.50;75.56
76374;BME280;65197;50.164;8.012;2023-02-28T07:53:26;96433.75;;;-2.88;75.17
76374;BME280;65197;50.164;8.012;2023-02-28T07:55:59;96448.47;;;-2.58;75.30
76374;BME280;65197;50.164;8.012;2023-02-28T07:58:27;96448.19;;;-1.68;72.36
76374;BME280;65197;50.164;8.012;2023-02-28T08:00:53;96446.44;;;-1.75;71.93
76374;BME280;65197;50.164;8.012;2023-02-28T08:03:20;96442.41;;;-1.64;69.64
76374;BME280;65197;50.164;8.012;2023-02-28T08:05:47;96413.50;;;-1.44;69.28
76374;BME280;65197;50.164;8.012;2023-02-28T08:08:13;96430.44;;;-1.21;69.01
76374;BME280;65197;50.164;8.012;2023-02-28T08:10:39;96433.88;;;-1.15;69.80
76374;BME280;65197;50.164;8.012;2023-02-28T08:13:04;96435.34;;;-1.32;68.89
76374;BME280;65197;50.164;8.012;2023-02-28T08:15:29;96408.03;;;-1.79;69.44
76374;BME280;65197;50.164;8.012;2023-02-28T08:17:55;96424.53;;;-1.28;68.03
76374;BME280;65197;50.164;8.012;2023-02-28T08:20:24;96445.97;;;-0.79;67.47
76374;BME280;65197;50.164;8.012;2023-02-28T08:22:50;96412.81;;;-1.31;67.37
76374;BME280;65197;50.164;8.012;2023-02-28T08:25:15;96452.28;;;-1.10;67.02
76374;BME280;65197;50.164;8.012;2023-02-28T08:27:40;96447.47;;;-0.94;67.53
76374;BME280;65197;50.164;8.012;2023-02-28T08:30:06;96451.81;;;-0.77;64.88
76374;BME280;65197;50.164;8.012;2023-02-28T08:32:33;96422.31;;;-1.04;65.61
76374;BME280;65197;50.164;8.012;2023-02-28T08:34:58;96444.50;;;-0.60;65.77
76374;BME280;65197;50.164;8.012;2023-02-28T08:37:24;96439.41;;;-0.69;64.16
76374;BME280;65197;50.164;8.012;2023-02-28T08:39:50;96433.47;;;-0.75;65.20
76374;BME280;65197;50.164;8.012;2023-02-28T08:42:15;96442.28;;;-0.28;63.38
76374;BME280;65197;50.164;8.012;2023-02-28T08:44:41;96443.03;;;-0.36;63.18
76374;BME280;65197;50.164;8.012;2023-02-28T08:47:06;96437.81;;;-0.58;63.20
76374;BME280;65197;50.164;8.012;2023-02-28T08:49:32;96436.25;;;-0.49;63.32
76374;BME280;65197;50.164;8.012;2023-02-28T08:51:57;96431.94;;;-0.61;62.42
76374;BME280;65197;50.164;8.012;2023-02-28T08:54:23;96417.41;;;-0.03;61.95
76374;BME280;65197;50.164;8.012;2023-02-28T08:56:49;96432.19;;;-0.35;61.00
76374;BME280;65197;50.164;8.012;2023-02-28T08:59:14;96432.91;;;-0.48;62.78
76374;BME280;65197;50.164;8.012;2023-02-28T09:01:40;96402.41;;;0.05;60.10
76374;BME280;65197;50.164;8.012;2023-02-28T09:04:07;96431.31;;;-0.40;60.94
76374;BME280;65197;50.164;8.012;2023-02-28T09:06:34;96428.94;;;-0.27;60.80
76374;BME280;65197;50.164;8.012;2023-02-28T09:08:59;96437.50;;;0.03;59.83
76374;BME280;65197;50.164;8.012;2023-02-28T09:11:26;96438.16;;;-0.21;61.34
76374;BME280;65197;50.164;8.012;2023-02-28T09:13:51;96385.69;;;0.04;58.59
76374;BME280;65197;50.164;8.012;2023-02-28T09:16:17;96446.16;;;0.49;58.32
76374;BME280;65197;50.164;8.012;2023-02-28T09:18:43;96428.69;;;0.68;57.92
76374;BME280;65197;50.164;8.012;2023-02-28T09:21:12;96430.53;;;1.02;57.04
76374;BME280;65197;50.164;8.012;2023-02-28T09:23:39;96440.50;;;0.90;57.14
76374;BME280;65197;50.164;8.012;2023-02-28T09:26:06;96423.94;;;1.69;55.39
76374;BME280;65197;50.164;8.012;2023-02-28T09:28:32;96414.72;;;1.39;54.38
76374;BME280;65197;50.164;8.012;2023-02-28T09:30:57;96404.50;;;0.84;54.58
76374;BME280;65197;50.164;8.012;2023-02-28T09:33:24;96432.88;;;0.66;54.42
76374;BME280;65197;50.164;8.012;2023-02-28T09:35:51;96433.84;;;0.98;54.54
76374;BME280;65197;50.164;8.012;2023-02-28T09:38:17;96442.34;;;1.39;52.31
76374;BME280;65197;50.164;8.012;2023-02-28T09:40:51;96437.34;;;2.08;50.74
76374;BME280;65197;50.164;8.012;2023-02-28T09:43:18;96434.00;;;1.75;50.02
76374;BME280;65197;50.164;8.012;2023-02-28T09:46:08;96435.66;;;1.39;51.66
76374;BME280;65197;50.164;8.012;2023-02-28T09:48:40;96415.44;;;0.99;50.06
76374;BME280;65197;50.164;8.012;2023-02-28T09:53:42;96381.00;;;0.60;49.13
76374;BME280;65197;50.164;8.012;2023-02-28T09:56:09;96423.88;;;1.17;48.62
76374;BME280;65197;50.164;8.012;2023-02-28T09:59:00;96435.66;;;1.39;50.49
76374;BME280;65197;50.164;8.012;2023-02-28T10:04:42;96432.97;;;0.90;48.03
76374;BME280;65197;50.164;8.012;2023-02-28T10:12:52;96424.53;;;0.73;49.93
76374;BME280;65197;50.164;8.012;2023-02-28T10:15:21;96447.81;;;0.43;50.61
76374;BME280;65197;50.164;8.012;2023-02-28T10:17:49;96445.81;;;-0.03;52.33
76374;BME280;65197;50.164;8.012;2023-02-28T10:20:20;96433.84;;;-0.36;52.27
76374;BME280;65197;50.164;8.012;2023-02-28T10:25:37;96440.97;;;-0.74;51.74
76374;BME280;65197;50.164;8.012;2023-02-28T10:28:14;96426.88;;;-0.67;51.62
76374;BME280;65197;50.164;8.012;2023-02-28T10:30:46;96429.63;;;-0.41;52.54
76374;BME280;65197;50.164;8.012;2023-02-28T10:33:25;96441.16;;;0.46;49.41
76374;BME280;65197;50.164;8.012;2023-02-28T10:35:53;96454.84;;;1.11;48.26
76374;BME280;65197;50.164;8.012;2023-02-28T10:38:25;96428.03;;;1.13;46.14
76374;BME280;65197;50.164;8.012;2023-02-28T10:41:04;96451.75;;;0.06;48.86
76374;BME280;65197;50.164;8.012;2023-02-28T10:43:30;96435.63;;;-0.24;50.00
76374;BME280;65197;50.164;8.012;2023-02-28T10:45:59;96463.41;;;-0.88;51.67
76374;BME280;65197;50.164;8.012;2023-02-28T10:50:54;96444.13;;;-0.93;53.23
76374;BME280;65197;50.164;8.012;2023-02-28T10:53:29;96449.03;;;-1.04;53.65
76374;BME280;65197;50.164;8.012;2023-02-28T10:56:17;96463.03;;;-1.20;55.46
76374;BME280;65197;50.164;8.012;2023-02-28T10:59:00;96450.53;;;-1.17;54.48
76374;BME280;65197;50.164;8.012;2023-02-28T11:03:56;96448.47;;;0.14;51.34
76374;BME280;65197;50.164;8.012;2023-02-28T11:06:26;96448.97;;;1.14;48.72
76374;BME280;65197;50.164;8.012;2023-02-28T11:08:59;96437.34;;;1.65;47.71
76374;BME280;65197;50.164;8.012;2023-02-28T11:11:28;96447.41;;;1.85;46.87
76374;BME280;65197;50.164;8.012;2023-02-28T11:14:03;96427.28;;;2.26;47.20
76374;BME280;65197;50.164;8.012;2023-02-28T11:16:37;96425.66;;;1.85;45.33
76374;BME280;65197;50.164;8.012;2023-02-28T11:19:04;96442.41;;;2.01;46.49
76374;BME280;65197;50.164;8.012;2023-02-28T11:21:36;96422.06;;;0.82;48.72
76374;BME280;65197;50.164;8.012;2023-02-28T11:26:49;96444.06;;;1.92;46.74
76374;BME280;65197;50.164;8.012;2023-02-28T11:29:33;96430.66;;;1.70;46.11
76374;BME280;65197;50.164;8.012;2023-02-28T11:32:12;96427.13;;;0.91;46.83
76374;BME280;65197;50.164;8.012;2023-02-28T11:34:40;96438.06;;;1.09;47.33
76374;BME280;65197;50.164;8.012;2023-02-28T11:37:14;96413.66;;;0.77;48.08
76374;BME280;65197;50.164;8.012;2023-02-28T11:39:40;96439.06;;;1.99;46.96
76374;BME280;65197;50.164;8.012;2023-02-28T11:58:44;96393.72;;;1.27;47.30
76374;BME280;65197;50.164;8.012;2023-02-28T12:04:15;96416.41;;;2.07;46.41
76374;BME280;65197;50.164;8.012;2023-02-28T12:07:00;96420.63;;;1.85;46.34
76374;BME280;65197;50.164;8.012;2023-02-28T12:17:55;96384.53;;;2.14;46.11
76374;BME280;65197;50.164;8.012;2023-02-28T12:21:18;96422.28;;;2.01;45.35
76374;BME280;65197;50.164;8.012;2023-02-28T12:26:23;96427.31;;;2.04;47.79
76374;BME280;65197;50.164;8.012;2023-02-28T12:28:56;96394.59;;;1.94;46.43
76374;BME280;65197;50.164;8.012;2023-02-28T12:31:28;96418.09;;;2.10;46.67
76374;BME280;65197;50.164;8.012;2023-02-28T12:34:00;96420.59;;;2.11;45.91
76374;BME280;65197;50.164;8.012;2023-02-28T12:36:28;96413.03;;;1.70;46.14
76374;BME280;65197;50.164;8.012;2023-02-28T12:38:56;96403.69;;;0.97;47.38
76374;BME280;65197;50.164;8.012;2023-02-28T12:41:51;96401.31;;;1.44;48.47
76374;BME280;65197;50.164;8.012;2023-02-28T12:44:27;96409.69;;;1.40;47.11
76374;BME280;65197;50.164;8.012;2023-02-28T12:46:59;96426.44;;;1.55;47.96
76374;BME280;65197;50.164;8.012;2023-02-28T12:49:30;96411.31;;;1.34;47.65
76374;BME280;65197;50.164;8.012;2023-02-28T12:52:01;96408.00;;;1.50;48.11
76374;BME280;65197;50.164;8.012;2023-02-28T12:54:48;96412.22;;;1.83;47.21
76374;BME280;65197;50.164;8.012;2023-02-28T12:57:24;96394.59;;;1.51;48.89
76374;BME280;65197;50.164;8.012;2023-02-28T12:59:56;96395.44;;;1.97;46.82
76374;BME280;65197;50.164;8.012;2023-02-28T13:02:49;96399.63;;;2.04;47.55
76374;BME280;65197;50.164;8.012;2023-02-28T13:05:56;96408.81;;;2.33;47.82
76374;BME280;65197;50.164;8.012;2023-02-28T13:11:33;96385.03;;;3.11;45.03
76374;BME280;65197;50.164;8.012;2023-02-28T13:14:06;96410.44;;;2.57;46.01
76374;BME280;65197;50.164;8.012;2023-02-28T13:16:53;96387.06;;;2.14;45.76
76374;BME280;65197;50.164;8.012;2023-02-28T13:19:21;96423.94;;;1.66;47.35
76374;BME280;65197;50.164;8.012;2023-02-28T13:21:50;96394.59;;;1.42;46.74
76374;BME280;65197;50.164;8.012;2023-02-28T13:24:39;96410.53;;;1.48;48.51
76374;BME280;65197;50.164;8.012;2023-02-28T13:29:35;96413.91;;;1.72;46.94
76374;BME280;65197;50.164;8.012;2023-02-28T13:34:34;96412.94;;;1.02;48.81
76374;BME280;65197;50.164;8.012;2023-02-28T13:53:07;96417.84;;;0.76;49.06
76374;BME280;65197;50.164;8.012;2023-02-28T13:55:55;96404.53;;;0.90;48.75
76374;BME280;65197;50.164;8.012;2023-02-28T14:04:14;96376.84;;;0.76;49.28
76374;BME280;65197;50.164;8.012;2023-02-28T14:06:53;96400.41;;;1.24;49.69
76374;BME280;65197;50.164;8.012;2023-02-28T14:09:28;96400.25;;;0.66;50.23
76374;BME280;65197;50.164;8.012;2023-02-28T14:11:54;96407.78;;;0.67;50.09
76374;BME280;65197;50.164;8.012;2023-02-28T14:17:14;96388.56;;;0.83;50.61
76374;BME280;65197;50.164;8.012;2023-02-28T14:19:44;96402.81;;;0.75;50.57
76374;BME280;65197;50.164;8.012;2023-02-28T14:22:50;96410.34;;;0.81;50.67
76374;BME280;65197;50.164;8.012;2023-02-28T14:25:42;96396.88;;;0.61;50.74
76374;BME280;65197;50.164;8.012;2023-02-28T14:31:00;96398.59;;;0.71;50.47
76374;BME280;65197;50.164;8.012;2023-02-28T14:41:21;96385.03;;;0.34;51.20
76374;BME280;65197;50.164;8.012;2023-02-28T14:43:55;96371.59;;;0.24;51.16
76374;BME280;65197;50.164;8.012;2023-02-28T14:46:24;96376.59;;;0.21;51.70
76374;BME280;65197;50.164;8.012;2023-02-28T14:48:51;96377.41;;;0.17;52.01
76374;BME280;65197;50.164;8.012;2023-02-28T14:51:22;96394.19;;;0.27;51.97
76374;BME280;65197;50.164;8.012;2023-02-28T14:53:56;96393.34;;;0.25;54.09
76374;BME280;65197;50.164;8.012;2023-02-28T14:56:24;96396.75;;;0.35;53.31
76374;BME280;65197;50.164;8.012;2023-02-28T14:58:53;96388.31;;;0.22;52.83
76374;BME280;65197;50.164;8.012;2023-02-28T15:01:21;96389.94;;;0.17;53.90
76374;BME280;65197;50.164;8.012;2023-02-28T15:03:47;96374.81;;;0.05;54.01
76374;BME280;65197;50.164;8.012;2023-02-28T15:06:16;96389.97;;;0.20;53.77
76374;BME280;65197;50.164;8.012;2023-02-28T15:08:44;96382.31;;;-0.03;54.05
76374;BME280;65197;50.164;8.012;2023-02-28T15:11:17;96388.13;;;-0.09;55.35
76374;BME280;65197;50.164;8.012;2023-02-28T15:13:54;96384.81;;;-0.05;55.43
76374;BME280;65197;50.164;8.012;2023-02-28T15:16:39;96380.66;;;0.02;54.76